sensor_id;sensor_type;location;lat;lon;timestamp;P1;durP1;ratioP1;P2;durP2;ratioP2
18443;SDS011;9350;53.176;8.194;2023-09-07T00:01:51;2.90;;;2.70;;
18443;SDS011;9350;53.176;8.194;2023-09-07T00:04:18;5.55;;;3.03;;
18443;SDS011;9350;53.176;8.194;2023-09-07T00:06:46;3.05;;;2.63;;
18443;SDS011;9350;53.176;8.194;2023-09-07T00:09:14;3.17;;;2.90;;
18443;SDS011;9350;53.176;8.194;2023-09-07T00:11:43;4.03;;;2.85;;
18443;SDS011;9350;53.176;8.194;2023-09-07T00:14:10;3.70;;;2.85;;
18443;SDS011;9350;53.176;8.194;2023-09-07T00:16:36;2.78;;;2.63;;
18443;SDS011;9350;53.176;8.194;2023-09-07T00:19:03;2.83;;;2.63;;
18443;SDS011;9350;53.176;8.194;2023-09-07T00:21:30;3.17;;;2.90;;
18443;SDS011;9350;53.176;8.194;2023-09-07T00:23:58;4.43;;;2.83;;
18443;SDS011;9350;53.176;8.194;2023-09-07T00:26:29;4.50;;;3.00;;
18443;SDS011;9350;53.176;8.194;2023-09-07T00:28:56;2.90;;;2.70;;
18443;SDS011;9350;53.176;8.194;2023-09-07T00:31:22;4.05;;;2.92;;
18443;SDS011;9350;53.176;8.194;2023-09-07T00:33:49;6.28;;;3.20;;
18443;SDS011;9350;53.176;8.194;2023-09-07T00:36:16;3.33;;;2.97;;
18443;SDS011;9350;53.176;8.194;2023-09-07T00:38:43;3.45;;;2.90;;
18443;SDS011;9350;53.176;8.194;2023-09-07T00:41:11;3.08;;;2.85;;
18443;SDS011;9350;53.176;8.194;2023-09-07T00:43:39;3.28;;;2.97;;
18443;SDS011;9350;53.176;8.194;2023-09-07T00:46:06;7.40;;;3.22;;
18443;SDS011;9350;53.176;8.194;2023-09-07T00:48:32;4.63;;;3.13;;
18443;SDS011;9350;53.176;8.194;2023-09-07T00:50:59;3.33;;;3.03;;
18443;SDS011;9350;53.176;8.194;2023-09-07T00:53:26;4.20;;;2.90;;
18443;SDS011;9350;53.176;8.194;2023-09-07T00:55:53;3.00;;;2.78;;
18443;SDS011;9350;53.176;8.194;2023-09-07T00:58:21;3.08;;;2.88;;
18443;SDS011;9350;53.176;8.194;2023-09-07T01:00:48;3.50;;;2.90;;
18443;SDS011;9350;53.176;8.194;2023-09-07T01:03:14;2.83;;;2.63;;
18443;SDS011;9350;53.176;8.194;2023-09-07T01:05:42;5.22;;;2.95;;
18443;SDS011;9350;53.176;8.194;2023-09-07T01:08:15;4.28;;;3.08;;
18443;SDS011;9350;53.176;8.194;2023-09-07T01:10:47;3.20;;;2.67;;
18443;SDS011;9350;53.176;8.194;2023-09-07T01:13:14;3.20;;;2.90;;
18443;SDS011;9350;53.176;8.194;2023-09-07T01:15:42;5.22;;;3.53;;
18443;SDS011;9350;53.176;8.194;2023-09-07T01:18:09;4.32;;;3.30;;
18443;SDS011;9350;53.176;8.194;2023-09-07T01:20:36;3.58;;;3.08;;
18443;SDS011;9350;53.176;8.194;2023-09-07T01:23:06;3.30;;;3.00;;
18443;SDS011;9350;53.176;8.194;2023-09-07T01:25:33;2.92;;;2.75;;
18443;SDS011;9350;53.176;8.194;2023-09-07T01:28:00;3.25;;;3.00;;
18443;SDS011;9350;53.176;8.194;2023-09-07T01:30:27;4.13;;;3.38;;
18443;SDS011;9350;53.176;8.194;2023-09-07T01:32:54;5.15;;;3.08;;
18443;SDS011;9350;53.176;8.194;2023-09-07T01:35:21;3.28;;;2.97;;
18443;SDS011;9350;53.176;8.194;2023-09-07T01:37:49;3.72;;;2.92;;
18443;SDS011;9350;53.176;8.194;2023-09-07T01:40:17;3.33;;;3.10;;
18443;SDS011;9350;53.176;8.194;2023-09-07T01:42:43;4.85;;;3.33;;
18443;SDS011;9350;53.176;8.194;2023-09-07T01:45:10;3.60;;;3.33;;
18443;SDS011;9350;53.176;8.194;2023-09-07T01:47:37;3.55;;;3.00;;
18443;SDS011;9350;53.176;8.194;2023-09-07T01:50:04;3.28;;;2.97;;
18443;SDS011;9350;53.176;8.194;2023-09-07T01:52:31;3.47;;;3.17;;
18443;SDS011;9350;53.176;8.194;2023-09-07T01:54:58;4.78;;;3.22;;
18443;SDS011;9350;53.176;8.194;2023-09-07T01:57:26;3.70;;;3.28;;
18443;SDS011;9350;53.176;8.194;2023-09-07T01:59:53;7.03;;;4.20;;
18443;SDS011;9350;53.176;8.194;2023-09-07T02:02:19;3.80;;;3.50;;
18443;SDS011;9350;53.176;8.194;2023-09-07T02:04:46;4.00;;;3.60;;
18443;SDS011;9350;53.176;8.194;2023-09-07T02:07:13;4.00;;;3.60;;
18443;SDS011;9350;53.176;8.194;2023-09-07T02:09:40;4.80;;;3.75;;
18443;SDS011;9350;53.176;8.194;2023-09-07T02:12:07;6.18;;;3.67;;
18443;SDS011;9350;53.176;8.194;2023-09-07T02:14:37;5.40;;;4.20;;
18443;SDS011;9350;53.176;8.194;2023-09-07T02:17:03;4.05;;;3.75;;
18443;SDS011;9350;53.176;8.194;2023-09-07T02:19:30;3.92;;;3.50;;
18443;SDS011;9350;53.176;8.194;2023-09-07T02:21:57;6.07;;;4.30;;
18443;SDS011;9350;53.176;8.194;2023-09-07T02:24:23;4.13;;;3.70;;
18443;SDS011;9350;53.176;8.194;2023-09-07T02:26:50;8.18;;;3.92;;
18443;SDS011;9350;53.176;8.194;2023-09-07T02:29:17;5.22;;;4.28;;
18443;SDS011;9350;53.176;8.194;2023-09-07T02:31:45;6.25;;;4.88;;
18443;SDS011;9350;53.176;8.194;2023-09-07T02:34:11;4.80;;;4.30;;
18443;SDS011;9350;53.176;8.194;2023-09-07T02:36:38;5.80;;;4.00;;
18443;SDS011;9350;53.176;8.194;2023-09-07T02:39:05;4.90;;;4.40;;
18443;SDS011;9350;53.176;8.194;2023-09-07T02:41:33;4.30;;;4.00;;
18443;SDS011;9350;53.176;8.194;2023-09-07T02:44:00;4.70;;;3.95;;
18443;SDS011;9350;53.176;8.194;2023-09-07T02:46:28;4.32;;;3.92;;
18443;SDS011;9350;53.176;8.194;2023-09-07T02:48:56;4.97;;;4.47;;
18443;SDS011;9350;53.176;8.194;2023-09-07T02:51:22;4.45;;;4.05;;
18443;SDS011;9350;53.176;8.194;2023-09-07T02:53:49;6.10;;;4.32;;
18443;SDS011;9350;53.176;8.194;2023-09-07T02:56:16;5.20;;;4.70;;
18443;SDS011;9350;53.176;8.194;2023-09-07T02:58:43;5.07;;;4.38;;
18443;SDS011;9350;53.176;8.194;2023-09-07T03:01:10;5.13;;;4.63;;
18443;SDS011;9350;53.176;8.194;2023-09-07T03:03:38;5.50;;;4.80;;
18443;SDS011;9350;53.176;8.194;2023-09-07T03:06:11;5.85;;;5.00;;
18443;SDS011;9350;53.176;8.194;2023-09-07T03:08:39;4.97;;;4.38;;
18443;SDS011;9350;53.176;8.194;2023-09-07T03:11:05;5.20;;;4.70;;
18443;SDS011;9350;53.176;8.194;2023-09-07T03:13:33;5.85;;;4.90;;
18443;SDS011;9350;53.176;8.194;2023-09-07T03:16:00;9.50;;;4.80;;
18443;SDS011;9350;53.176;8.194;2023-09-07T03:18:28;6.47;;;4.88;;
18443;SDS011;9350;53.176;8.194;2023-09-07T03:20:55;5.30;;;4.80;;
18443;SDS011;9350;53.176;8.194;2023-09-07T03:23:25;4.97;;;4.57;;
18443;SDS011;9350;53.176;8.194;2023-09-07T03:25:53;7.15;;;5.22;;
18443;SDS011;9350;53.176;8.194;2023-09-07T03:28:20;6.68;;;4.68;;
18443;SDS011;9350;53.176;8.194;2023-09-07T03:30:46;5.70;;;4.82;;
18443;SDS011;9350;53.176;8.194;2023-09-07T03:33:13;12.13;;;5.57;;
18443;SDS011;9350;53.176;8.194;2023-09-07T03:35:40;7.65;;;5.40;;
18443;SDS011;9350;53.176;8.194;2023-09-07T03:38:06;6.97;;;5.43;;
18443;SDS011;9350;53.176;8.194;2023-09-07T03:40:34;6.55;;;5.07;;
18443;SDS011;9350;53.176;8.194;2023-09-07T03:43:01;9.05;;;5.00;;
18443;SDS011;9350;53.176;8.194;2023-09-07T03:45:28;7.07;;;5.05;;
18443;SDS011;9350;53.176;8.194;2023-09-07T03:47:55;5.90;;;5.22;;
18443;SDS011;9350;53.176;8.194;2023-09-07T03:50:22;8.10;;;4.85;;
18443;SDS011;9350;53.176;8.194;2023-09-07T03:52:49;6.20;;;5.22;;
18443;SDS011;9350;53.176;8.194;2023-09-07T03:55:15;6.10;;;5.10;;
18443;SDS011;9350;53.176;8.194;2023-09-07T03:57:43;9.23;;;5.18;;
18443;SDS011;9350;53.176;8.194;2023-09-07T04:00:10;7.45;;;5.80;;
18443;SDS011;9350;53.176;8.194;2023-09-07T04:02:37;6.82;;;5.85;;
18443;SDS011;9350;53.176;8.194;2023-09-07T04:05:04;5.95;;;5.10;;
18443;SDS011;9350;53.176;8.194;2023-09-07T04:07:32;9.25;;;5.65;;
18443;SDS011;9350;53.176;8.194;2023-09-07T04:09:58;9.35;;;6.05;;
18443;SDS011;9350;53.176;8.194;2023-09-07T04:12:25;6.32;;;5.28;;
18443;SDS011;9350;53.176;8.194;2023-09-07T04:14:53;11.15;;;6.47;;
18443;SDS011;9350;53.176;8.194;2023-09-07T04:17:20;6.95;;;5.63;;
18443;SDS011;9350;53.176;8.194;2023-09-07T04:19:46;6.32;;;5.72;;
18443;SDS011;9350;53.176;8.194;2023-09-07T04:22:13;6.15;;;5.53;;
18443;SDS011;9350;53.176;8.194;2023-09-07T04:24:40;9.93;;;6.15;;
18443;SDS011;9350;53.176;8.194;2023-09-07T04:27:06;6.15;;;5.57;;
18443;SDS011;9350;53.176;8.194;2023-09-07T04:29:33;8.55;;;6.05;;
18443;SDS011;9350;53.176;8.194;2023-09-07T04:32:01;10.15;;;6.28;;
18443;SDS011;9350;53.176;8.194;2023-09-07T04:34:28;6.85;;;5.43;;
18443;SDS011;9350;53.176;8.194;2023-09-07T04:36:55;8.45;;;6.28;;
18443;SDS011;9350;53.176;8.194;2023-09-07T04:39:21;8.65;;;5.63;;
18443;SDS011;9350;53.176;8.194;2023-09-07T04:41:48;7.28;;;6.25;;
18443;SDS011;9350;53.176;8.194;2023-09-07T04:44:17;10.85;;;6.50;;
18443;SDS011;9350;53.176;8.194;2023-09-07T04:46:44;9.45;;;6.40;;
18443;SDS011;9350;53.176;8.194;2023-09-07T04:49:12;11.48;;;7.18;;
18443;SDS011;9350;53.176;8.194;2023-09-07T04:51:38;9.93;;;6.63;;
18443;SDS011;9350;53.176;8.194;2023-09-07T04:54:05;9.63;;;6.90;;
18443;SDS011;9350;53.176;8.194;2023-09-07T04:56:32;9.55;;;6.60;;
18443;SDS011;9350;53.176;8.194;2023-09-07T04:58:59;12.32;;;7.45;;
18443;SDS011;9350;53.176;8.194;2023-09-07T05:01:25;12.07;;;7.55;;
18443;SDS011;9350;53.176;8.194;2023-09-07T05:03:52;11.70;;;8.23;;
18443;SDS011;9350;53.176;8.194;2023-09-07T05:06:21;12.02;;;7.78;;
18443;SDS011;9350;53.176;8.194;2023-09-07T05:08:48;14.23;;;7.80;;
18443;SDS011;9350;53.176;8.194;2023-09-07T05:11:15;10.77;;;7.15;;
18443;SDS011;9350;53.176;8.194;2023-09-07T05:13:42;9.60;;;7.30;;
18443;SDS011;9350;53.176;8.194;2023-09-07T05:16:08;10.20;;;7.60;;
18443;SDS011;9350;53.176;8.194;2023-09-07T05:18:35;10.65;;;7.55;;
18443;SDS011;9350;53.176;8.194;2023-09-07T05:21:10;11.57;;;8.07;;
18443;SDS011;9350;53.176;8.194;2023-09-07T05:23:39;10.95;;;7.65;;
18443;SDS011;9350;53.176;8.194;2023-09-07T05:26:06;10.38;;;7.75;;
18443;SDS011;9350;53.176;8.194;2023-09-07T05:28:33;16.42;;;7.85;;
18443;SDS011;9350;53.176;8.194;2023-09-07T05:31:00;13.40;;;7.90;;
18443;SDS011;9350;53.176;8.194;2023-09-07T05:33:26;13.82;;;8.45;;
18443;SDS011;9350;53.176;8.194;2023-09-07T05:35:53;14.90;;;8.40;;
18443;SDS011;9350;53.176;8.194;2023-09-07T05:38:20;12.13;;;8.10;;
18443;SDS011;9350;53.176;8.194;2023-09-07T05:40:48;14.52;;;8.20;;
18443;SDS011;9350;53.176;8.194;2023-09-07T05:43:19;11.18;;;7.72;;
18443;SDS011;9350;53.176;8.194;2023-09-07T05:45:45;13.10;;;7.88;;
18443;SDS011;9350;53.176;8.194;2023-09-07T05:48:12;11.32;;;6.97;;
18443;SDS011;9350;53.176;8.194;2023-09-07T05:50:41;9.23;;;6.90;;
18443;SDS011;9350;53.176;8.194;2023-09-07T05:53:08;10.63;;;7.25;;
18443;SDS011;9350;53.176;8.194;2023-09-07T05:55:34;9.88;;;6.88;;
18443;SDS011;9350;53.176;8.194;2023-09-07T05:58:04;11.45;;;7.25;;
18443;SDS011;9350;53.176;8.194;2023-09-07T06:00:32;9.98;;;7.15;;
18443;SDS011;9350;53.176;8.194;2023-09-07T06:02:59;9.20;;;7.25;;
18443;SDS011;9350;53.176;8.194;2023-09-07T06:05:28;8.95;;;6.80;;
18443;SDS011;9350;53.176;8.194;2023-09-07T06:07:55;11.98;;;6.60;;
18443;SDS011;9350;53.176;8.194;2023-09-07T06:10:21;10.88;;;7.15;;
18443;SDS011;9350;53.176;8.194;2023-09-07T06:12:48;9.20;;;7.10;;
18443;SDS011;9350;53.176;8.194;2023-09-07T06:15:16;9.48;;;6.68;;
18443;SDS011;9350;53.176;8.194;2023-09-07T06:17:43;9.20;;;7.20;;
18443;SDS011;9350;53.176;8.194;2023-09-07T06:20:10;9.13;;;7.25;;
18443;SDS011;9350;53.176;8.194;2023-09-07T06:22:37;11.98;;;7.40;;
18443;SDS011;9350;53.176;8.194;2023-09-07T06:25:04;8.00;;;6.65;;
18443;SDS011;9350;53.176;8.194;2023-09-07T06:27:31;8.98;;;6.65;;
18443;SDS011;9350;53.176;8.194;2023-09-07T06:29:58;10.63;;;6.78;;
18443;SDS011;9350;53.176;8.194;2023-09-07T06:32:26;11.70;;;7.15;;
18443;SDS011;9350;53.176;8.194;2023-09-07T06:34:52;11.10;;;7.10;;
18443;SDS011;9350;53.176;8.194;2023-09-07T06:37:19;11.30;;;6.10;;
18443;SDS011;9350;53.176;8.194;2023-09-07T06:39:46;8.85;;;6.72;;
18443;SDS011;9350;53.176;8.194;2023-09-07T06:42:12;10.10;;;6.75;;
18443;SDS011;9350;53.176;8.194;2023-09-07T06:44:40;13.00;;;6.80;;
18443;SDS011;9350;53.176;8.194;2023-09-07T06:47:08;8.30;;;6.50;;
18443;SDS011;9350;53.176;8.194;2023-09-07T06:49:36;11.15;;;7.00;;
18443;SDS011;9350;53.176;8.194;2023-09-07T06:52:03;8.70;;;6.57;;
18443;SDS011;9350;53.176;8.194;2023-09-07T06:54:30;11.38;;;6.47;;
18443;SDS011;9350;53.176;8.194;2023-09-07T06:56:57;9.75;;;6.90;;
18443;SDS011;9350;53.176;8.194;2023-09-07T06:59:24;11.45;;;6.50;;
18443;SDS011;9350;53.176;8.194;2023-09-07T07:01:50;11.15;;;6.78;;
18443;SDS011;9350;53.176;8.194;2023-09-07T07:04:17;11.90;;;6.65;;
18443;SDS011;9350;53.176;8.194;2023-09-07T07:06:44;9.63;;;6.38;;
18443;SDS011;9350;53.176;8.194;2023-09-07T07:09:11;9.95;;;6.75;;
18443;SDS011;9350;53.176;8.194;2023-09-07T07:11:38;8.48;;;6.40;;
18443;SDS011;9350;53.176;8.194;2023-09-07T07:14:06;8.45;;;6.25;;
18443;SDS011;9350;53.176;8.194;2023-09-07T07:16:33;11.13;;;7.32;;
18443;SDS011;9350;53.176;8.194;2023-09-07T07:19:00;8.65;;;6.63;;
18443;SDS011;9350;53.176;8.194;2023-09-07T07:21:27;12.18;;;6.72;;
18443;SDS011;9350;53.176;8.194;2023-09-07T07:23:55;8.55;;;6.15;;
18443;SDS011;9350;53.176;8.194;2023-09-07T07:26:21;8.95;;;6.75;;
18443;SDS011;9350;53.176;8.194;2023-09-07T07:28:48;10.07;;;6.53;;
18443;SDS011;9350;53.176;8.194;2023-09-07T07:31:15;13.75;;;6.72;;
18443;SDS011;9350;53.176;8.194;2023-09-07T07:33:41;9.48;;;6.43;;
18443;SDS011;9350;53.176;8.194;2023-09-07T07:36:08;8.02;;;6.60;;
18443;SDS011;9350;53.176;8.194;2023-09-07T07:38:35;8.35;;;6.35;;
18443;SDS011;9350;53.176;8.194;2023-09-07T07:41:03;8.95;;;6.55;;
18443;SDS011;9350;53.176;8.194;2023-09-07T07:43:30;9.02;;;6.07;;
18443;SDS011;9350;53.176;8.194;2023-09-07T07:45:58;9.85;;;6.50;;
18443;SDS011;9350;53.176;8.194;2023-09-07T07:48:25;12.15;;;6.20;;
18443;SDS011;9350;53.176;8.194;2023-09-07T07:50:53;11.52;;;5.97;;
18443;SDS011;9350;53.176;8.194;2023-09-07T07:53:20;9.20;;;6.38;;
18443;SDS011;9350;53.176;8.194;2023-09-07T07:55:47;11.35;;;6.53;;
18443;SDS011;9350;53.176;8.194;2023-09-07T07:58:15;7.35;;;5.90;;
18443;SDS011;9350;53.176;8.194;2023-09-07T08:00:41;8.65;;;6.07;;
18443;SDS011;9350;53.176;8.194;2023-09-07T08:03:12;6.88;;;5.85;;
18443;SDS011;9350;53.176;8.194;2023-09-07T08:05:39;7.55;;;6.15;;
18443;SDS011;9350;53.176;8.194;2023-09-07T08:08:06;8.48;;;5.80;;
18443;SDS011;9350;53.176;8.194;2023-09-07T08:10:34;9.75;;;5.97;;
18443;SDS011;9350;53.176;8.194;2023-09-07T08:13:01;8.45;;;6.07;;
18443;SDS011;9350;53.176;8.194;2023-09-07T08:15:31;8.48;;;6.25;;
18443;SDS011;9350;53.176;8.194;2023-09-07T08:17:58;6.32;;;5.70;;
18443;SDS011;9350;53.176;8.194;2023-09-07T08:20:25;7.05;;;5.95;;
18443;SDS011;9350;53.176;8.194;2023-09-07T08:22:52;12.27;;;5.88;;
18443;SDS011;9350;53.176;8.194;2023-09-07T08:25:19;9.10;;;5.68;;
18443;SDS011;9350;53.176;8.194;2023-09-07T08:27:46;8.30;;;6.00;;
18443;SDS011;9350;53.176;8.194;2023-09-07T08:30:15;7.40;;;5.75;;
18443;SDS011;9350;53.176;8.194;2023-09-07T08:32:44;6.57;;;5.75;;
18443;SDS011;9350;53.176;8.194;2023-09-07T08:35:12;8.18;;;5.80;;
18443;SDS011;9350;53.176;8.194;2023-09-07T08:37:40;6.32;;;5.60;;
18443;SDS011;9350;53.176;8.194;2023-09-07T08:40:07;12.98;;;6.05;;
18443;SDS011;9350;53.176;8.194;2023-09-07T08:42:36;6.95;;;5.75;;
18443;SDS011;9350;53.176;8.194;2023-09-07T08:45:03;7.72;;;5.85;;
18443;SDS011;9350;53.176;8.194;2023-09-07T08:47:33;8.27;;;6.25;;
18443;SDS011;9350;53.176;8.194;2023-09-07T08:50:02;6.57;;;5.88;;
18443;SDS011;9350;53.176;8.194;2023-09-07T08:52:31;11.02;;;5.97;;
18443;SDS011;9350;53.176;8.194;2023-09-07T08:54:57;8.55;;;6.05;;
18443;SDS011;9350;53.176;8.194;2023-09-07T08:57:26;9.35;;;6.25;;
18443;SDS011;9350;53.176;8.194;2023-09-07T08:59:53;10.88;;;5.75;;
18443;SDS011;9350;53.176;8.194;2023-09-07T09:02:20;13.88;;;6.35;;
18443;SDS011;9350;53.176;8.194;2023-09-07T09:04:46;7.25;;;5.65;;
18443;SDS011;9350;53.176;8.194;2023-09-07T09:07:15;8.00;;;5.40;;
18443;SDS011;9350;53.176;8.194;2023-09-07T09:09:41;9.98;;;5.32;;
18443;SDS011;9350;53.176;8.194;2023-09-07T09:12:09;8.23;;;5.88;;
18443;SDS011;9350;53.176;8.194;2023-09-07T09:14:37;7.32;;;5.55;;
18443;SDS011;9350;53.176;8.194;2023-09-07T09:17:05;9.60;;;5.82;;
18443;SDS011;9350;53.176;8.194;2023-09-07T09:19:32;8.35;;;5.50;;
18443;SDS011;9350;53.176;8.194;2023-09-07T09:21:59;7.78;;;5.78;;
18443;SDS011;9350;53.176;8.194;2023-09-07T09:24:27;6.10;;;5.10;;
18443;SDS011;9350;53.176;8.194;2023-09-07T09:26:58;8.32;;;5.68;;
18443;SDS011;9350;53.176;8.194;2023-09-07T09:29:25;10.43;;;5.75;;
18443;SDS011;9350;53.176;8.194;2023-09-07T09:31:52;9.70;;;5.68;;
18443;SDS011;9350;53.176;8.194;2023-09-07T09:34:19;5.88;;;5.03;;
18443;SDS011;9350;53.176;8.194;2023-09-07T09:36:46;8.30;;;5.25;;
18443;SDS011;9350;53.176;8.194;2023-09-07T09:39:21;8.65;;;5.40;;
18443;SDS011;9350;53.176;8.194;2023-09-07T09:41:50;6.65;;;5.10;;
18443;SDS011;9350;53.176;8.194;2023-09-07T09:44:17;6.63;;;4.90;;
18443;SDS011;9350;53.176;8.194;2023-09-07T09:46:50;7.28;;;4.97;;
18443;SDS011;9350;53.176;8.194;2023-09-07T09:49:17;5.85;;;5.22;;
18443;SDS011;9350;53.176;8.194;2023-09-07T09:51:46;6.70;;;5.05;;
18443;SDS011;9350;53.176;8.194;2023-09-07T09:54:15;5.53;;;5.03;;
18443;SDS011;9350;53.176;8.194;2023-09-07T09:56:42;8.88;;;5.13;;
18443;SDS011;9350;53.176;8.194;2023-09-07T09:59:11;5.93;;;4.88;;
18443;SDS011;9350;53.176;8.194;2023-09-07T10:01:39;5.40;;;4.85;;
18443;SDS011;9350;53.176;8.194;2023-09-07T10:04:10;6.22;;;4.80;;
18443;SDS011;9350;53.176;8.194;2023-09-07T10:06:38;7.88;;;5.00;;
18443;SDS011;9350;53.176;8.194;2023-09-07T10:09:05;9.10;;;5.10;;
18443;SDS011;9350;53.176;8.194;2023-09-07T10:11:36;8.35;;;5.13;;
18443;SDS011;9350;53.176;8.194;2023-09-07T10:14:04;7.03;;;5.22;;
18443;SDS011;9350;53.176;8.194;2023-09-07T10:16:43;10.27;;;5.88;;
18443;SDS011;9350;53.176;8.194;2023-09-07T10:19:14;7.28;;;5.03;;
18443;SDS011;9350;53.176;8.194;2023-09-07T10:21:41;8.15;;;5.47;;
18443;SDS011;9350;53.176;8.194;2023-09-07T10:24:08;7.68;;;5.30;;
18443;SDS011;9350;53.176;8.194;2023-09-07T10:26:35;10.88;;;5.05;;
18443;SDS011;9350;53.176;8.194;2023-09-07T10:29:02;8.75;;;4.90;;
18443;SDS011;9350;53.176;8.194;2023-09-07T10:31:30;9.73;;;6.35;;
18443;SDS011;9350;53.176;8.194;2023-09-07T10:34:08;6.15;;;4.65;;
18443;SDS011;9350;53.176;8.194;2023-09-07T10:36:36;5.95;;;5.40;;
18443;SDS011;9350;53.176;8.194;2023-09-07T10:39:03;5.95;;;5.03;;
18443;SDS011;9350;53.176;8.194;2023-09-07T10:41:40;5.35;;;4.85;;
18443;SDS011;9350;53.176;8.194;2023-09-07T10:44:08;7.13;;;5.60;;
18443;SDS011;9350;53.176;8.194;2023-09-07T10:46:37;8.32;;;4.90;;
18443;SDS011;9350;53.176;8.194;2023-09-07T10:49:06;6.72;;;4.80;;
18443;SDS011;9350;53.176;8.194;2023-09-07T10:51:40;6.18;;;4.63;;
18443;SDS011;9350;53.176;8.194;2023-09-07T10:54:15;6.18;;;4.88;;
18443;SDS011;9350;53.176;8.194;2023-09-07T10:56:43;7.60;;;4.75;;
18443;SDS011;9350;53.176;8.194;2023-09-07T10:59:10;8.48;;;4.47;;
18443;SDS011;9350;53.176;8.194;2023-09-07T11:01:37;5.85;;;4.47;;
18443;SDS011;9350;53.176;8.194;2023-09-07T11:04:04;8.65;;;5.03;;
18443;SDS011;9350;53.176;8.194;2023-09-07T11:06:34;4.97;;;4.38;;
18443;SDS011;9350;53.176;8.194;2023-09-07T11:09:02;7.32;;;4.72;;
18443;SDS011;9350;53.176;8.194;2023-09-07T11:11:31;4.65;;;4.25;;
18443;SDS011;9350;53.176;8.194;2023-09-07T11:13:59;7.72;;;4.93;;
18443;SDS011;9350;53.176;8.194;2023-09-07T11:16:25;5.63;;;5.00;;
18443;SDS011;9350;53.176;8.194;2023-09-07T11:18:52;5.85;;;5.03;;
18443;SDS011;9350;53.176;8.194;2023-09-07T11:21:19;7.22;;;4.38;;
18443;SDS011;9350;53.176;8.194;2023-09-07T11:23:47;8.50;;;5.25;;
18443;SDS011;9350;53.176;8.194;2023-09-07T11:26:14;5.43;;;4.93;;
18443;SDS011;9350;53.176;8.194;2023-09-07T11:28:44;7.15;;;4.82;;
18443;SDS011;9350;53.176;8.194;2023-09-07T11:31:11;5.22;;;4.68;;
18443;SDS011;9350;53.176;8.194;2023-09-07T11:33:38;7.80;;;4.72;;
18443;SDS011;9350;53.176;8.194;2023-09-07T11:36:07;10.02;;;4.95;;
18443;SDS011;9350;53.176;8.194;2023-09-07T11:38:37;6.90;;;5.20;;
18443;SDS011;9350;53.176;8.194;2023-09-07T11:41:05;7.25;;;5.40;;
18443;SDS011;9350;53.176;8.194;2023-09-07T11:43:31;6.63;;;4.88;;
18443;SDS011;9350;53.176;8.194;2023-09-07T11:45:58;5.07;;;4.57;;
18443;SDS011;9350;53.176;8.194;2023-09-07T11:48:26;6.13;;;5.00;;
18443;SDS011;9350;53.176;8.194;2023-09-07T11:50:53;6.82;;;4.93;;
18443;SDS011;9350;53.176;8.194;2023-09-07T11:53:20;5.10;;;4.65;;
18443;SDS011;9350;53.176;8.194;2023-09-07T11:55:47;8.15;;;4.80;;
18443;SDS011;9350;53.176;8.194;2023-09-07T11:58:15;6.45;;;4.25;;
18443;SDS011;9350;53.176;8.194;2023-09-07T12:00:42;5.10;;;4.35;;
18443;SDS011;9350;53.176;8.194;2023-09-07T12:03:09;4.70;;;4.20;;
18443;SDS011;9350;53.176;8.194;2023-09-07T12:05:35;7.97;;;4.57;;
18443;SDS011;9350;53.176;8.194;2023-09-07T12:08:04;6.57;;;4.30;;
18443;SDS011;9350;53.176;8.194;2023-09-07T12:10:31;7.50;;;4.40;;
18443;SDS011;9350;53.176;8.194;2023-09-07T12:12:58;4.40;;;3.95;;
18443;SDS011;9350;53.176;8.194;2023-09-07T12:15:26;6.78;;;3.90;;
18443;SDS011;9350;53.176;8.194;2023-09-07T12:17:53;4.63;;;3.95;;
18443;SDS011;9350;53.176;8.194;2023-09-07T12:20:20;4.28;;;3.88;;
18443;SDS011;9350;53.176;8.194;2023-09-07T12:22:47;5.95;;;4.10;;
18443;SDS011;9350;53.176;8.194;2023-09-07T12:25:14;6.72;;;4.03;;
18443;SDS011;9350;53.176;8.194;2023-09-07T12:27:41;5.40;;;4.00;;
18443;SDS011;9350;53.176;8.194;2023-09-07T12:30:09;4.25;;;3.63;;
18443;SDS011;9350;53.176;8.194;2023-09-07T12:32:39;6.43;;;4.15;;
18443;SDS011;9350;53.176;8.194;2023-09-07T12:35:06;4.80;;;3.80;;
18443;SDS011;9350;53.176;8.194;2023-09-07T12:37:34;5.03;;;4.10;;
18443;SDS011;9350;53.176;8.194;2023-09-07T12:40:01;6.18;;;3.85;;
18443;SDS011;9350;53.176;8.194;2023-09-07T12:42:36;3.65;;;3.35;;
18443;SDS011;9350;53.176;8.194;2023-09-07T12:45:05;4.65;;;3.30;;
18443;SDS011;9350;53.176;8.194;2023-09-07T12:47:32;3.65;;;3.13;;
18443;SDS011;9350;53.176;8.194;2023-09-07T12:50:00;3.58;;;3.28;;
18443;SDS011;9350;53.176;8.194;2023-09-07T12:52:27;5.63;;;3.78;;
18443;SDS011;9350;53.176;8.194;2023-09-07T12:54:54;4.68;;;3.90;;
18443;SDS011;9350;53.176;8.194;2023-09-07T12:57:21;7.25;;;3.75;;
18443;SDS011;9350;53.176;8.194;2023-09-07T12:59:47;4.68;;;3.22;;
18443;SDS011;9350;53.176;8.194;2023-09-07T13:02:15;3.67;;;3.33;;
18443;SDS011;9350;53.176;8.194;2023-09-07T13:04:41;3.65;;;3.25;;
18443;SDS011;9350;53.176;8.194;2023-09-07T13:07:10;4.72;;;3.65;;
18443;SDS011;9350;53.176;8.194;2023-09-07T13:09:36;5.75;;;4.18;;
18443;SDS011;9350;53.176;8.194;2023-09-07T13:12:03;5.25;;;3.45;;
18443;SDS011;9350;53.176;8.194;2023-09-07T13:14:30;4.53;;;3.40;;
18443;SDS011;9350;53.176;8.194;2023-09-07T13:16:57;3.53;;;3.13;;
18443;SDS011;9350;53.176;8.194;2023-09-07T13:19:24;4.80;;;3.20;;
18443;SDS011;9350;53.176;8.194;2023-09-07T13:21:50;5.47;;;3.50;;
18443;SDS011;9350;53.176;8.194;2023-09-07T13:24:18;3.50;;;3.20;;
18443;SDS011;9350;53.176;8.194;2023-09-07T13:26:48;3.35;;;3.05;;
18443;SDS011;9350;53.176;8.194;2023-09-07T13:29:16;3.40;;;3.10;;
18443;SDS011;9350;53.176;8.194;2023-09-07T13:31:43;5.90;;;3.30;;
18443;SDS011;9350;53.176;8.194;2023-09-07T13:34:10;3.67;;;3.33;;
18443;SDS011;9350;53.176;8.194;2023-09-07T13:36:37;3.72;;;3.42;;
18443;SDS011;9350;53.176;8.194;2023-09-07T13:39:03;4.45;;;3.53;;
18443;SDS011;9350;53.176;8.194;2023-09-07T13:41:32;4.32;;;3.28;;
18443;SDS011;9350;53.176;8.194;2023-09-07T13:43:58;7.72;;;3.42;;
18443;SDS011;9350;53.176;8.194;2023-09-07T13:46:25;5.47;;;3.50;;
18443;SDS011;9350;53.176;8.194;2023-09-07T13:48:52;3.70;;;3.40;;
18443;SDS011;9350;53.176;8.194;2023-09-07T13:51:19;3.65;;;3.33;;
18443;SDS011;9350;53.176;8.194;2023-09-07T13:53:46;4.78;;;3.30;;
18443;SDS011;9350;53.176;8.194;2023-09-07T13:56:12;3.30;;;3.00;;
18443;SDS011;9350;53.176;8.194;2023-09-07T13:58:40;3.70;;;3.22;;
18443;SDS011;9350;53.176;8.194;2023-09-07T14:01:07;3.92;;;3.40;;
18443;SDS011;9350;53.176;8.194;2023-09-07T14:03:34;3.55;;;3.25;;
18443;SDS011;9350;53.176;8.194;2023-09-07T14:06:01;10.38;;;3.38;;
18443;SDS011;9350;53.176;8.194;2023-09-07T14:08:28;3.67;;;3.20;;
18443;SDS011;9350;53.176;8.194;2023-09-07T14:10:58;5.47;;;3.20;;
18443;SDS011;9350;53.176;8.194;2023-09-07T14:13:24;3.53;;;3.22;;
18443;SDS011;9350;53.176;8.194;2023-09-07T14:15:52;6.93;;;3.60;;
18443;SDS011;9350;53.176;8.194;2023-09-07T14:18:19;6.13;;;3.80;;
18443;SDS011;9350;53.176;8.194;2023-09-07T14:20:46;6.22;;;3.50;;
18443;SDS011;9350;53.176;8.194;2023-09-07T14:23:12;3.85;;;3.55;;
18443;SDS011;9350;53.176;8.194;2023-09-07T14:25:39;5.43;;;3.70;;
18443;SDS011;9350;53.176;8.194;2023-09-07T14:28:07;4.53;;;3.45;;
18443;SDS011;9350;53.176;8.194;2023-09-07T14:30:34;5.20;;;3.90;;
18443;SDS011;9350;53.176;8.194;2023-09-07T14:33:02;4.10;;;3.70;;
18443;SDS011;9350;53.176;8.194;2023-09-07T14:35:29;5.75;;;3.72;;
18443;SDS011;9350;53.176;8.194;2023-09-07T14:37:56;3.83;;;3.20;;
18443;SDS011;9350;53.176;8.194;2023-09-07T14:40:23;6.75;;;3.47;;
18443;SDS011;9350;53.176;8.194;2023-09-07T14:42:50;4.10;;;3.42;;
18443;SDS011;9350;53.176;8.194;2023-09-07T14:45:18;4.07;;;3.58;;
18443;SDS011;9350;53.176;8.194;2023-09-07T14:47:45;6.18;;;3.53;;
18443;SDS011;9350;53.176;8.194;2023-09-07T14:50:13;3.55;;;3.28;;
18443;SDS011;9350;53.176;8.194;2023-09-07T14:52:40;4.03;;;3.28;;
18443;SDS011;9350;53.176;8.194;2023-09-07T14:55:09;4.60;;;3.78;;
18443;SDS011;9350;53.176;8.194;2023-09-07T14:57:36;4.68;;;3.35;;
18443;SDS011;9350;53.176;8.194;2023-09-07T15:00:03;5.97;;;3.65;;
18443;SDS011;9350;53.176;8.194;2023-09-07T15:02:30;4.13;;;3.65;;